sensor_id;sensor_type;location;lat;lon;timestamp;P1;durP1;ratioP1;P2;durP2;ratioP2
75930;SDS011;64609;47.052;15.462;2023-07-09T00:00:54;12.07;;;5.32;;
75930;SDS011;64609;47.052;15.462;2023-07-09T00:03:20;8.98;;;5.60;;
75930;SDS011;64609;47.052;15.462;2023-07-09T00:05:46;7.90;;;5.60;;
75930;SDS011;64609;47.052;15.462;2023-07-09T00:08:24;7.97;;;5.55;;
75930;SDS011;64609;47.052;15.462;2023-07-09T00:10:57;9.25;;;6.00;;
75930;SDS011;64609;47.052;15.462;2023-07-09T00:13:24;8.95;;;6.00;;
75930;SDS011;64609;47.052;15.462;2023-07-09T00:15:51;13.27;;;5.82;;
75930;SDS011;64609;47.052;15.462;2023-07-09T00:18:17;9.50;;;5.53;;
75930;SDS011;64609;47.052;15.462;2023-07-09T00:20:43;17.75;;;6.88;;
75930;SDS011;64609;47.052;15.462;2023-07-09T00:23:11;8.85;;;5.10;;
75930;SDS011;64609;47.052;15.462;2023-07-09T00:25:41;7.38;;;5.32;;
75930;SDS011;64609;47.052;15.462;2023-07-09T00:28:14;10.68;;;6.00;;
75930;SDS011;64609;47.052;15.462;2023-07-09T00:33:09;10.15;;;5.47;;
75930;SDS011;64609;47.052;15.462;2023-07-09T00:35:39;11.55;;;5.90;;
75930;SDS011;64609;47.052;15.462;2023-07-09T00:38:07;11.80;;;5.95;;
75930;SDS011;64609;47.052;15.462;2023-07-09T00:40:38;11.15;;;5.80;;
75930;SDS011;64609;47.052;15.462;2023-07-09T00:43:10;7.75;;;5.70;;
75930;SDS011;64609;47.052;15.462;2023-07-09T00:45:41;9.65;;;6.00;;
75930;SDS011;64609;47.052;15.462;2023-07-09T00:48:09;9.05;;;6.00;;
75930;SDS011;64609;47.052;15.462;2023-07-09T00:50:41;10.00;;;5.53;;
75930;SDS011;64609;47.052;15.462;2023-07-09T00:53:15;8.07;;;5.60;;
75930;SDS011;64609;47.052;15.462;2023-07-09T00:55:53;9.32;;;5.53;;
75930;SDS011;64609;47.052;15.462;2023-07-09T00:58:24;10.27;;;5.80;;
75930;SDS011;64609;47.052;15.462;2023-07-09T01:00:53;9.10;;;5.85;;
75930;SDS011;64609;47.052;15.462;2023-07-09T01:03:28;9.48;;;5.40;;
75930;SDS011;64609;47.052;15.462;2023-07-09T01:05:54;8.20;;;5.60;;
75930;SDS011;64609;47.052;15.462;2023-07-09T01:08:23;8.55;;;5.43;;
75930;SDS011;64609;47.052;15.462;2023-07-09T01:10:49;9.40;;;5.60;;
75930;SDS011;64609;47.052;15.462;2023-07-09T01:13:14;7.25;;;5.70;;
75930;SDS011;64609;47.052;15.462;2023-07-09T01:15:43;9.52;;;6.47;;
75930;SDS011;64609;47.052;15.462;2023-07-09T01:18:11;9.00;;;5.97;;
75930;SDS011;64609;47.052;15.462;2023-07-09T01:20:38;16.88;;;5.70;;
75930;SDS011;64609;47.052;15.462;2023-07-09T01:23:04;13.50;;;6.57;;
75930;SDS011;64609;47.052;15.462;2023-07-09T01:25:31;11.45;;;5.75;;
75930;SDS011;64609;47.052;15.462;2023-07-09T01:27:57;11.77;;;5.93;;
75930;SDS011;64609;47.052;15.462;2023-07-09T01:30:35;11.48;;;5.90;;
75930;SDS011;64609;47.052;15.462;2023-07-09T01:33:02;9.88;;;5.47;;
75930;SDS011;64609;47.052;15.462;2023-07-09T01:35:30;9.40;;;5.80;;
75930;SDS011;64609;47.052;15.462;2023-07-09T01:37:56;7.60;;;5.93;;
75930;SDS011;64609;47.052;15.462;2023-07-09T01:40:23;11.88;;;5.93;;
75930;SDS011;64609;47.052;15.462;2023-07-09T01:42:50;12.73;;;6.55;;
75930;SDS011;64609;47.052;15.462;2023-07-09T01:45:16;9.40;;;6.07;;
75930;SDS011;64609;47.052;15.462;2023-07-09T01:47:42;10.90;;;5.78;;
75930;SDS011;64609;47.052;15.462;2023-07-09T01:50:09;9.85;;;6.15;;
75930;SDS011;64609;47.052;15.462;2023-07-09T01:52:36;9.05;;;6.13;;
75930;SDS011;64609;47.052;15.462;2023-07-09T01:55:04;8.65;;;5.78;;
75930;SDS011;64609;47.052;15.462;2023-07-09T01:57:30;7.65;;;6.38;;
75930;SDS011;64609;47.052;15.462;2023-07-09T02:00:04;10.80;;;5.70;;
75930;SDS011;64609;47.052;15.462;2023-07-09T02:02:35;8.43;;;6.15;;
75930;SDS011;64609;47.052;15.462;2023-07-09T02:05:03;8.50;;;5.80;;
75930;SDS011;64609;47.052;15.462;2023-07-09T02:07:29;9.88;;;5.80;;
75930;SDS011;64609;47.052;15.462;2023-07-09T02:09:55;9.80;;;5.93;;
75930;SDS011;64609;47.052;15.462;2023-07-09T02:12:21;8.43;;;6.03;;
75930;SDS011;64609;47.052;15.462;2023-07-09T02:14:46;11.07;;;6.50;;
75930;SDS011;64609;47.052;15.462;2023-07-09T02:17:13;10.43;;;5.85;;
75930;SDS011;64609;47.052;15.462;2023-07-09T02:19:40;15.30;;;6.55;;
75930;SDS011;64609;47.052;15.462;2023-07-09T02:22:06;8.93;;;6.43;;
75930;SDS011;64609;47.052;15.462;2023-07-09T02:24:33;12.60;;;5.95;;
75930;SDS011;64609;47.052;15.462;2023-07-09T02:26:59;10.13;;;6.30;;
75930;SDS011;64609;47.052;15.462;2023-07-09T02:29:27;10.05;;;5.88;;
75930;SDS011;64609;47.052;15.462;2023-07-09T02:31:55;8.73;;;5.53;;
75930;SDS011;64609;47.052;15.462;2023-07-09T02:34:22;10.20;;;6.30;;
75930;SDS011;64609;47.052;15.462;2023-07-09T02:36:51;8.95;;;6.30;;
75930;SDS011;64609;47.052;15.462;2023-07-09T02:39:21;10.20;;;6.45;;
75930;SDS011;64609;47.052;15.462;2023-07-09T02:41:47;7.78;;;6.03;;
75930;SDS011;64609;47.052;15.462;2023-07-09T02:44:13;8.90;;;5.95;;
75930;SDS011;64609;47.052;15.462;2023-07-09T02:46:39;8.70;;;6.20;;
75930;SDS011;64609;47.052;15.462;2023-07-09T02:49:05;10.85;;;6.32;;
75930;SDS011;64609;47.052;15.462;2023-07-09T02:51:31;12.63;;;6.47;;
75930;SDS011;64609;47.052;15.462;2023-07-09T02:53:59;8.48;;;6.10;;
75930;SDS011;64609;47.052;15.462;2023-07-09T02:56:26;8.93;;;6.07;;
75930;SDS011;64609;47.052;15.462;2023-07-09T02:58:52;9.48;;;5.72;;
75930;SDS011;64609;47.052;15.462;2023-07-09T03:01:18;11.00;;;5.95;;
75930;SDS011;64609;47.052;15.462;2023-07-09T03:03:49;11.18;;;6.47;;
75930;SDS011;64609;47.052;15.462;2023-07-09T03:06:24;10.77;;;6.60;;
75930;SDS011;64609;47.052;15.462;2023-07-09T03:08:52;11.38;;;5.97;;
75930;SDS011;64609;47.052;15.462;2023-07-09T03:11:18;9.38;;;6.20;;
75930;SDS011;64609;47.052;15.462;2023-07-09T03:13:44;10.15;;;5.97;;
75930;SDS011;64609;47.052;15.462;2023-07-09T03:16:11;10.63;;;6.80;;
75930;SDS011;64609;47.052;15.462;2023-07-09T03:18:37;9.25;;;5.90;;
75930;SDS011;64609;47.052;15.462;2023-07-09T03:21:03;13.10;;;6.20;;
75930;SDS011;64609;47.052;15.462;2023-07-09T03:23:29;14.05;;;6.93;;
75930;SDS011;64609;47.052;15.462;2023-07-09T03:25:55;9.30;;;6.70;;
75930;SDS011;64609;47.052;15.462;2023-07-09T03:28:21;10.00;;;6.78;;
75930;SDS011;64609;47.052;15.462;2023-07-09T03:30:48;8.88;;;6.28;;
75930;SDS011;64609;47.052;15.462;2023-07-09T03:33:14;9.43;;;6.30;;
75930;SDS011;64609;47.052;15.462;2023-07-09T03:35:42;10.13;;;6.63;;
75930;SDS011;64609;47.052;15.462;2023-07-09T03:38:08;10.77;;;6.65;;
75930;SDS011;64609;47.052;15.462;2023-07-09T03:40:35;8.45;;;6.70;;
75930;SDS011;64609;47.052;15.462;2023-07-09T03:43:03;10.18;;;6.10;;
75930;SDS011;64609;47.052;15.462;2023-07-09T03:45:33;12.50;;;6.50;;
75930;SDS011;64609;47.052;15.462;2023-07-09T03:48:00;10.95;;;6.50;;
75930;SDS011;64609;47.052;15.462;2023-07-09T03:50:26;10.40;;;6.68;;
75930;SDS011;64609;47.052;15.462;2023-07-09T03:52:52;9.52;;;6.28;;
75930;SDS011;64609;47.052;15.462;2023-07-09T03:55:18;7.88;;;5.93;;
75930;SDS011;64609;47.052;15.462;2023-07-09T03:57:44;10.32;;;6.07;;
75930;SDS011;64609;47.052;15.462;2023-07-09T04:00:10;7.75;;;6.05;;
75930;SDS011;64609;47.052;15.462;2023-07-09T04:02:36;12.02;;;6.20;;
75930;SDS011;64609;47.052;15.462;2023-07-09T04:05:04;11.65;;;6.60;;
75930;SDS011;64609;47.052;15.462;2023-07-09T04:07:30;7.82;;;6.25;;
75930;SDS011;64609;47.052;15.462;2023-07-09T04:09:56;11.77;;;5.93;;
75930;SDS011;64609;47.052;15.462;2023-07-09T04:12:21;9.77;;;6.72;;
75930;SDS011;64609;47.052;15.462;2023-07-09T04:14:47;10.07;;;6.20;;
75930;SDS011;64609;47.052;15.462;2023-07-09T04:17:13;10.68;;;6.82;;
75930;SDS011;64609;47.052;15.462;2023-07-09T04:19:38;10.20;;;6.38;;
75930;SDS011;64609;47.052;15.462;2023-07-09T04:22:04;10.20;;;6.38;;
75930;SDS011;64609;47.052;15.462;2023-07-09T04:24:30;9.20;;;6.57;;
75930;SDS011;64609;47.052;15.462;2023-07-09T04:26:56;10.52;;;6.63;;
75930;SDS011;64609;47.052;15.462;2023-07-09T04:29:23;8.70;;;6.30;;
75930;SDS011;64609;47.052;15.462;2023-07-09T04:31:49;11.75;;;7.05;;
75930;SDS011;64609;47.052;15.462;2023-07-09T04:34:14;11.45;;;6.70;;
75930;SDS011;64609;47.052;15.462;2023-07-09T04:36:40;12.27;;;6.70;;
75930;SDS011;64609;47.052;15.462;2023-07-09T04:39:06;12.07;;;6.55;;
75930;SDS011;64609;47.052;15.462;2023-07-09T04:41:32;10.75;;;6.80;;
75930;SDS011;64609;47.052;15.462;2023-07-09T04:43:58;12.25;;;6.65;;
75930;SDS011;64609;47.052;15.462;2023-07-09T04:46:24;10.18;;;7.07;;
75930;SDS011;64609;47.052;15.462;2023-07-09T04:48:49;8.55;;;6.55;;
75930;SDS011;64609;47.052;15.462;2023-07-09T04:51:15;12.90;;;6.57;;
75930;SDS011;64609;47.052;15.462;2023-07-09T04:53:41;10.63;;;6.78;;
75930;SDS011;64609;47.052;15.462;2023-07-09T04:56:07;10.18;;;6.18;;
75930;SDS011;64609;47.052;15.462;2023-07-09T04:58:34;10.70;;;6.35;;
75930;SDS011;64609;47.052;15.462;2023-07-09T05:01:00;12.77;;;6.88;;
75930;SDS011;64609;47.052;15.462;2023-07-09T05:03:26;9.27;;;6.50;;
75930;SDS011;64609;47.052;15.462;2023-07-09T05:05:52;11.23;;;6.75;;
75930;SDS011;64609;47.052;15.462;2023-07-09T05:08:17;12.60;;;7.00;;
75930;SDS011;64609;47.052;15.462;2023-07-09T05:10:44;9.95;;;6.82;;
75930;SDS011;64609;47.052;15.462;2023-07-09T05:13:11;10.60;;;6.38;;
75930;SDS011;64609;47.052;15.462;2023-07-09T05:15:39;10.55;;;6.80;;
75930;SDS011;64609;47.052;15.462;2023-07-09T05:18:07;12.23;;;7.25;;
75930;SDS011;64609;47.052;15.462;2023-07-09T05:20:35;12.38;;;6.30;;
75930;SDS011;64609;47.052;15.462;2023-07-09T05:23:01;16.10;;;7.22;;
75930;SDS011;64609;47.052;15.462;2023-07-09T05:25:27;9.90;;;6.60;;
75930;SDS011;64609;47.052;15.462;2023-07-09T05:27:52;10.05;;;6.75;;
75930;SDS011;64609;47.052;15.462;2023-07-09T05:30:18;10.63;;;6.90;;
75930;SDS011;64609;47.052;15.462;2023-07-09T05:32:44;11.20;;;6.60;;
75930;SDS011;64609;47.052;15.462;2023-07-09T05:35:11;9.68;;;6.80;;
75930;SDS011;64609;47.052;15.462;2023-07-09T05:37:36;9.95;;;7.30;;
75930;SDS011;64609;47.052;15.462;2023-07-09T05:40:03;12.90;;;7.07;;
75930;SDS011;64609;47.052;15.462;2023-07-09T05:42:30;12.00;;;6.75;;
75930;SDS011;64609;47.052;15.462;2023-07-09T05:44:56;9.30;;;6.50;;
75930;SDS011;64609;47.052;15.462;2023-07-09T05:47:22;8.88;;;6.65;;
75930;SDS011;64609;47.052;15.462;2023-07-09T05:49:48;8.90;;;7.07;;
75930;SDS011;64609;47.052;15.462;2023-07-09T05:52:15;10.52;;;6.47;;
75930;SDS011;64609;47.052;15.462;2023-07-09T05:54:48;16.38;;;6.45;;
75930;SDS011;64609;47.052;15.462;2023-07-09T05:57:14;9.95;;;6.50;;
75930;SDS011;64609;47.052;15.462;2023-07-09T05:59:40;11.65;;;7.00;;
75930;SDS011;64609;47.052;15.462;2023-07-09T06:02:09;9.15;;;6.72;;
75930;SDS011;64609;47.052;15.462;2023-07-09T06:04:36;12.85;;;7.32;;
75930;SDS011;64609;47.052;15.462;2023-07-09T06:07:02;13.50;;;7.20;;
75930;SDS011;64609;47.052;15.462;2023-07-09T06:09:29;8.05;;;6.35;;
75930;SDS011;64609;47.052;15.462;2023-07-09T06:11:55;11.82;;;6.82;;
75930;SDS011;64609;47.052;15.462;2023-07-09T06:14:20;11.40;;;6.63;;
75930;SDS011;64609;47.052;15.462;2023-07-09T06:16:46;10.52;;;7.10;;
75930;SDS011;64609;47.052;15.462;2023-07-09T06:19:12;8.75;;;6.97;;
75930;SDS011;64609;47.052;15.462;2023-07-09T06:21:38;12.20;;;6.38;;
75930;SDS011;64609;47.052;15.462;2023-07-09T06:24:05;8.40;;;6.68;;
75930;SDS011;64609;47.052;15.462;2023-07-09T06:26:32;11.73;;;6.95;;
75930;SDS011;64609;47.052;15.462;2023-07-09T06:28:57;9.68;;;6.78;;
75930;SDS011;64609;47.052;15.462;2023-07-09T06:31:23;12.98;;;7.38;;
75930;SDS011;64609;47.052;15.462;2023-07-09T06:33:49;11.38;;;7.03;;
75930;SDS011;64609;47.052;15.462;2023-07-09T06:36:16;15.43;;;7.13;;
75930;SDS011;64609;47.052;15.462;2023-07-09T06:38:43;9.75;;;6.78;;
75930;SDS011;64609;47.052;15.462;2023-07-09T06:41:09;11.57;;;7.25;;
75930;SDS011;64609;47.052;15.462;2023-07-09T06:43:35;18.23;;;7.55;;
75930;SDS011;64609;47.052;15.462;2023-07-09T06:46:04;9.00;;;6.32;;
75930;SDS011;64609;47.052;15.462;2023-07-09T06:48:31;12.23;;;7.00;;
75930;SDS011;64609;47.052;15.462;2023-07-09T06:50:57;9.35;;;7.05;;
75930;SDS011;64609;47.052;15.462;2023-07-09T06:53:24;10.48;;;6.55;;
75930;SDS011;64609;47.052;15.462;2023-07-09T06:55:52;10.18;;;6.00;;
75930;SDS011;64609;47.052;15.462;2023-07-09T06:58:23;12.57;;;7.45;;
75930;SDS011;64609;47.052;15.462;2023-07-09T07:00:50;11.05;;;7.10;;
75930;SDS011;64609;47.052;15.462;2023-07-09T07:03:17;10.82;;;6.38;;
75930;SDS011;64609;47.052;15.462;2023-07-09T07:05:52;13.10;;;7.47;;
75930;SDS011;64609;47.052;15.462;2023-07-09T07:08:19;10.25;;;6.50;;
75930;SDS011;64609;47.052;15.462;2023-07-09T07:10:48;9.98;;;7.03;;
75930;SDS011;64609;47.052;15.462;2023-07-09T07:13:14;11.60;;;7.07;;
75930;SDS011;64609;47.052;15.462;2023-07-09T07:15:40;10.88;;;6.88;;
75930;SDS011;64609;47.052;15.462;2023-07-09T07:18:06;11.95;;;7.38;;
75930;SDS011;64609;47.052;15.462;2023-07-09T07:20:33;9.02;;;7.05;;
75930;SDS011;64609;47.052;15.462;2023-07-09T07:22:59;9.32;;;6.82;;
75930;SDS011;64609;47.052;15.462;2023-07-09T07:25:25;11.93;;;7.03;;
75930;SDS011;64609;47.052;15.462;2023-07-09T07:27:51;11.48;;;6.85;;
75930;SDS011;64609;47.052;15.462;2023-07-09T07:30:17;11.30;;;6.22;;
75930;SDS011;64609;47.052;15.462;2023-07-09T07:32:46;10.27;;;7.05;;
75930;SDS011;64609;47.052;15.462;2023-07-09T07:35:14;12.07;;;6.68;;
75930;SDS011;64609;47.052;15.462;2023-07-09T07:37:40;13.00;;;7.00;;
75930;SDS011;64609;47.052;15.462;2023-07-09T07:40:07;11.77;;;6.78;;
75930;SDS011;64609;47.052;15.462;2023-07-09T07:42:33;8.95;;;6.30;;
75930;SDS011;64609;47.052;15.462;2023-07-09T07:44:58;12.82;;;6.72;;
75930;SDS011;64609;47.052;15.462;2023-07-09T07:47:24;12.35;;;7.18;;
75930;SDS011;64609;47.052;15.462;2023-07-09T07:49:52;9.35;;;7.05;;
75930;SDS011;64609;47.052;15.462;2023-07-09T07:52:18;9.57;;;6.45;;
75930;SDS011;64609;47.052;15.462;2023-07-09T07:54:43;8.55;;;6.70;;
75930;SDS011;64609;47.052;15.462;2023-07-09T07:57:09;8.63;;;6.50;;
75930;SDS011;64609;47.052;15.462;2023-07-09T07:59:36;12.57;;;6.68;;
75930;SDS011;64609;47.052;15.462;2023-07-09T08:02:02;13.00;;;6.68;;
75930;SDS011;64609;47.052;15.462;2023-07-09T08:04:29;13.25;;;6.78;;
75930;SDS011;64609;47.052;15.462;2023-07-09T08:06:55;8.73;;;7.18;;
75930;SDS011;64609;47.052;15.462;2023-07-09T08:09:20;11.88;;;7.25;;
75930;SDS011;64609;47.052;15.462;2023-07-09T08:11:46;9.80;;;6.70;;
75930;SDS011;64609;47.052;15.462;2023-07-09T08:14:12;10.85;;;6.85;;
75930;SDS011;64609;47.052;15.462;2023-07-09T08:16:38;9.60;;;6.88;;
75930;SDS011;64609;47.052;15.462;2023-07-09T08:19:04;9.85;;;6.85;;
75930;SDS011;64609;47.052;15.462;2023-07-09T08:21:30;11.80;;;6.97;;
75930;SDS011;64609;47.052;15.462;2023-07-09T08:23:56;11.75;;;6.50;;
75930;SDS011;64609;47.052;15.462;2023-07-09T08:26:22;8.60;;;6.80;;
75930;SDS011;64609;47.052;15.462;2023-07-09T08:28:49;10.77;;;7.07;;
75930;SDS011;64609;47.052;15.462;2023-07-09T08:31:15;10.27;;;6.22;;
75930;SDS011;64609;47.052;15.462;2023-07-09T08:33:41;9.90;;;6.68;;
75930;SDS011;64609;47.052;15.462;2023-07-09T08:36:07;12.35;;;6.68;;
75930;SDS011;64609;47.052;15.462;2023-07-09T08:38:33;8.20;;;6.95;;
75930;SDS011;64609;47.052;15.462;2023-07-09T08:43:30;11.32;;;6.57;;
75930;SDS011;64609;47.052;15.462;2023-07-09T08:48:49;13.45;;;6.93;;
75930;SDS011;64609;47.052;15.462;2023-07-09T08:51:27;10.63;;;6.45;;
75930;SDS011;64609;47.052;15.462;2023-07-09T08:54:09;12.70;;;6.95;;
75930;SDS011;64609;47.052;15.462;2023-07-09T08:56:40;14.30;;;6.72;;
75930;SDS011;64609;47.052;15.462;2023-07-09T08:59:07;9.50;;;6.28;;
75930;SDS011;64609;47.052;15.462;2023-07-09T09:01:38;10.20;;;6.68;;
75930;SDS011;64609;47.052;15.462;2023-07-09T09:04:28;9.48;;;6.40;;
75930;SDS011;64609;47.052;15.462;2023-07-09T09:07:13;10.27;;;6.25;;
75930;SDS011;64609;47.052;15.462;2023-07-09T09:09:58;9.55;;;6.25;;
75930;SDS011;64609;47.052;15.462;2023-07-09T09:15:09;11.63;;;6.87;;
75930;SDS011;64609;47.052;15.462;2023-07-09T09:17:40;7.43;;;6.15;;
75930;SDS011;64609;47.052;15.462;2023-07-09T09:20:22;8.98;;;6.45;;
75930;SDS011;64609;47.052;15.462;2023-07-09T09:22:50;8.90;;;6.53;;
75930;SDS011;64609;47.052;15.462;2023-07-09T09:25:30;7.68;;;6.10;;
75930;SDS011;64609;47.052;15.462;2023-07-09T09:27:58;8.90;;;6.30;;
75930;SDS011;64609;47.052;15.462;2023-07-09T09:30:25;10.88;;;6.40;;
75930;SDS011;64609;47.052;15.462;2023-07-09T09:33:06;9.05;;;6.47;;
75930;SDS011;64609;47.052;15.462;2023-07-09T09:35:34;11.63;;;6.10;;
75930;SDS011;64609;47.052;15.462;2023-07-09T09:38:00;7.45;;;6.20;;
75930;SDS011;64609;47.052;15.462;2023-07-09T09:40:28;10.95;;;6.35;;
75930;SDS011;64609;47.052;15.462;2023-07-09T09:42:58;10.02;;;6.38;;
75930;SDS011;64609;47.052;15.462;2023-07-09T09:45:31;8.73;;;6.00;;
75930;SDS011;64609;47.052;15.462;2023-07-09T09:48:00;10.68;;;6.60;;
75930;SDS011;64609;47.052;15.462;2023-07-09T09:50:27;9.77;;;6.00;;
75930;SDS011;64609;47.052;15.462;2023-07-09T09:52:58;11.15;;;6.35;;
75930;SDS011;64609;47.052;15.462;2023-07-09T09:55:30;10.63;;;6.28;;
75930;SDS011;64609;47.052;15.462;2023-07-09T09:57:57;15.77;;;6.18;;
75930;SDS011;64609;47.052;15.462;2023-07-09T10:00:25;10.95;;;6.10;;
75930;SDS011;64609;47.052;15.462;2023-07-09T10:02:57;10.80;;;5.43;;
75930;SDS011;64609;47.052;15.462;2023-07-09T10:05:51;9.43;;;6.15;;
75930;SDS011;64609;47.052;15.462;2023-07-09T10:10:51;9.43;;;6.00;;
75930;SDS011;64609;47.052;15.462;2023-07-09T10:13:31;8.95;;;5.90;;
75930;SDS011;64609;47.052;15.462;2023-07-09T10:16:05;8.32;;;5.72;;
75930;SDS011;64609;47.052;15.462;2023-07-09T10:21:18;9.32;;;5.85;;
75930;SDS011;64609;47.052;15.462;2023-07-09T10:27:00;9.75;;;5.85;;
75930;SDS011;64609;47.052;15.462;2023-07-09T10:32:19;7.13;;;4.90;;
75930;SDS011;64609;47.052;15.462;2023-07-09T10:35:02;6.55;;;5.10;;
75930;SDS011;64609;47.052;15.462;2023-07-09T10:40:46;8.60;;;5.45;;
75930;SDS011;64609;47.052;15.462;2023-07-09T10:43:32;8.38;;;5.30;;
75930;SDS011;64609;47.052;15.462;2023-07-09T10:46:14;9.65;;;5.40;;
75930;SDS011;64609;47.052;15.462;2023-07-09T10:48:53;8.23;;;5.53;;
75930;SDS011;64609;47.052;15.462;2023-07-09T10:51:55;7.32;;;5.60;;
75930;SDS011;64609;47.052;15.462;2023-07-09T10:57:17;10.45;;;5.50;;
75930;SDS011;64609;47.052;15.462;2023-07-09T10:59:47;9.68;;;5.93;;
75930;SDS011;64609;47.052;15.462;2023-07-09T11:02:21;9.25;;;4.88;;
75930;SDS011;64609;47.052;15.462;2023-07-09T11:04:55;8.45;;;5.35;;
75930;SDS011;64609;47.052;15.462;2023-07-09T11:07:26;8.13;;;5.88;;
75930;SDS011;64609;47.052;15.462;2023-07-09T11:10:01;8.02;;;5.00;;
75930;SDS011;64609;47.052;15.462;2023-07-09T11:12:42;8.13;;;5.50;;
75930;SDS011;64609;47.052;15.462;2023-07-09T11:15:15;10.30;;;5.28;;
75930;SDS011;64609;47.052;15.462;2023-07-09T11:17:46;9.70;;;5.38;;
75930;SDS011;64609;47.052;15.462;2023-07-09T11:20:17;7.85;;;5.18;;
75930;SDS011;64609;47.052;15.462;2023-07-09T11:22:54;6.72;;;4.93;;
75930;SDS011;64609;47.052;15.462;2023-07-09T11:25:28;7.93;;;5.32;;
75930;SDS011;64609;47.052;15.462;2023-07-09T11:28:06;9.55;;;5.00;;
75930;SDS011;64609;47.052;15.462;2023-07-09T11:30:32;8.52;;;5.30;;
75930;SDS011;64609;47.052;15.462;2023-07-09T11:33:18;7.65;;;5.13;;
75930;SDS011;64609;47.052;15.462;2023-07-09T11:36:06;7.70;;;5.40;;
75930;SDS011;64609;47.052;15.462;2023-07-09T11:38:43;7.10;;;4.70;;
75930;SDS011;64609;47.052;15.462;2023-07-09T11:41:22;9.52;;;4.80;;
75930;SDS011;64609;47.052;15.462;2023-07-09T11:46:33;9.02;;;5.10;;
75930;SDS011;64609;47.052;15.462;2023-07-09T11:49:04;7.63;;;4.78;;
75930;SDS011;64609;47.052;15.462;2023-07-09T11:51:38;5.95;;;4.47;;
75930;SDS011;64609;47.052;15.462;2023-07-09T11:54:12;7.10;;;4.70;;
75930;SDS011;64609;47.052;15.462;2023-07-09T11:56:38;7.28;;;4.63;;
75930;SDS011;64609;47.052;15.462;2023-07-09T11:59:04;7.80;;;4.60;;
75930;SDS011;64609;47.052;15.462;2023-07-09T12:01:34;8.20;;;4.80;;
75930;SDS011;64609;47.052;15.462;2023-07-09T12:04:15;7.88;;;4.85;;
75930;SDS011;64609;47.052;15.462;2023-07-09T12:06:41;8.68;;;5.18;;
75930;SDS011;64609;47.052;15.462;2023-07-09T12:09:14;12.27;;;5.15;;
75930;SDS011;64609;47.052;15.462;2023-07-09T12:11:46;8.57;;;4.60;;
75930;SDS011;64609;47.052;15.462;2023-07-09T12:14:14;10.45;;;4.90;;
75930;SDS011;64609;47.052;15.462;2023-07-09T12:16:52;8.13;;;4.97;;
75930;SDS011;64609;47.052;15.462;2023-07-09T12:19:19;5.75;;;4.55;;
75930;SDS011;64609;47.052;15.462;2023-07-09T12:21:47;6.78;;;4.72;;
75930;SDS011;64609;47.052;15.462;2023-07-09T12:24:20;6.80;;;5.25;;
75930;SDS011;64609;47.052;15.462;2023-07-09T12:26:55;9.40;;;5.03;;
75930;SDS011;64609;47.052;15.462;2023-07-09T12:29:25;6.68;;;4.75;;
75930;SDS011;64609;47.052;15.462;2023-07-09T12:31:52;9.05;;;5.55;;
75930;SDS011;64609;47.052;15.462;2023-07-09T12:34:18;5.97;;;4.72;;
75930;SDS011;64609;47.052;15.462;2023-07-09T12:36:45;8.02;;;5.18;;
75930;SDS011;64609;47.052;15.462;2023-07-09T12:39:15;8.88;;;4.90;;
75930;SDS011;64609;47.052;15.462;2023-07-09T12:41:58;7.35;;;4.82;;
75930;SDS011;64609;47.052;15.462;2023-07-09T12:44:26;7.45;;;5.10;;
75930;SDS011;64609;47.052;15.462;2023-07-09T12:46:54;7.30;;;5.07;;
75930;SDS011;64609;47.052;15.462;2023-07-09T12:49:22;13.35;;;5.25;;
75930;SDS011;64609;47.052;15.462;2023-07-09T12:51:50;8.82;;;4.53;;
75930;SDS011;64609;47.052;15.462;2023-07-09T12:54:19;6.90;;;4.80;;
75930;SDS011;64609;47.052;15.462;2023-07-09T12:56:54;7.75;;;4.78;;
75930;SDS011;64609;47.052;15.462;2023-07-09T12:59:26;10.82;;;5.00;;
75930;SDS011;64609;47.052;15.462;2023-07-09T13:02:05;5.60;;;4.63;;
75930;SDS011;64609;47.052;15.462;2023-07-09T13:04:33;8.68;;;4.95;;
75930;SDS011;64609;47.052;15.462;2023-07-09T13:07:02;8.82;;;4.65;;
75930;SDS011;64609;47.052;15.462;2023-07-09T13:09:29;5.88;;;4.97;;
75930;SDS011;64609;47.052;15.462;2023-07-09T13:11:55;5.30;;;4.55;;
75930;SDS011;64609;47.052;15.462;2023-07-09T13:14:25;7.47;;;4.70;;
75930;SDS011;64609;47.052;15.462;2023-07-09T13:17:04;9.60;;;5.00;;
75930;SDS011;64609;47.052;15.462;2023-07-09T13:19:32;8.45;;;4.45;;
75930;SDS011;64609;47.052;15.462;2023-07-09T13:21:58;9.38;;;4.60;;
75930;SDS011;64609;47.052;15.462;2023-07-09T13:24:25;6.47;;;4.63;;
75930;SDS011;64609;47.052;15.462;2023-07-09T13:26:53;8.25;;;5.18;;
75930;SDS011;64609;47.052;15.462;2023-07-09T13:29:19;8.05;;;5.25;;
75930;SDS011;64609;47.052;15.462;2023-07-09T13:31:45;7.50;;;4.63;;
75930;SDS011;64609;47.052;15.462;2023-07-09T13:34:23;11.40;;;5.13;;
75930;SDS011;64609;47.052;15.462;2023-07-09T13:36:50;7.25;;;5.18;;
75930;SDS011;64609;47.052;15.462;2023-07-09T13:39:16;7.70;;;4.78;;
75930;SDS011;64609;47.052;15.462;2023-07-09T13:41:46;6.50;;;4.82;;
75930;SDS011;64609;47.052;15.462;2023-07-09T13:44:17;6.78;;;4.80;;
75930;SDS011;64609;47.052;15.462;2023-07-09T13:46:45;6.18;;;4.80;;
75930;SDS011;64609;47.052;15.462;2023-07-09T13:49:11;8.07;;;4.75;;
75930;SDS011;64609;47.052;15.462;2023-07-09T13:51:44;8.38;;;4.65;;
75930;SDS011;64609;47.052;15.462;2023-07-09T13:56:49;5.65;;;4.72;;
75930;SDS011;64609;47.052;15.462;2023-07-09T13:59:17;8.95;;;4.65;;
75930;SDS011;64609;47.052;15.462;2023-07-09T14:01:46;8.63;;;5.07;;
75930;SDS011;64609;47.052;15.462;2023-07-09T14:04:13;11.65;;;5.32;;
75930;SDS011;64609;47.052;15.462;2023-07-09T14:06:41;7.55;;;5.10;;
75930;SDS011;64609;47.052;15.462;2023-07-09T14:09:08;9.40;;;5.20;;
75930;SDS011;64609;47.052;15.462;2023-07-09T14:11:34;6.25;;;5.00;;
75930;SDS011;64609;47.052;15.462;2023-07-09T14:14:10;9.80;;;4.57;;
75930;SDS011;64609;47.052;15.462;2023-07-09T14:16:48;6.90;;;4.88;;
75930;SDS011;64609;47.052;15.462;2023-07-09T14:19:16;8.70;;;5.07;;
75930;SDS011;64609;47.052;15.462;2023-07-09T14:21:47;9.73;;;5.10;;
75930;SDS011;64609;47.052;15.462;2023-07-09T14:24:16;8.75;;;4.85;;
75930;SDS011;64609;47.052;15.462;2023-07-09T14:26:44;10.45;;;5.43;;
75930;SDS011;64609;47.052;15.462;2023-07-09T14:29:14;8.85;;;4.90;;
75930;SDS011;64609;47.052;15.462;2023-07-09T14:31:40;12.40;;;5.15;;
75930;SDS011;64609;47.052;15.462;2023-07-09T14:34:23;10.25;;;4.82;;
75930;SDS011;64609;47.052;15.462;2023-07-09T14:36:53;7.53;;;4.75;;
75930;SDS011;64609;47.052;15.462;2023-07-09T14:39:20;6.30;;;5.03;;
75930;SDS011;64609;47.052;15.462;2023-07-09T14:41:46;8.05;;;4.85;;
75930;SDS011;64609;47.052;15.462;2023-07-09T14:44:33;6.75;;;4.90;;
75930;SDS011;64609;47.052;15.462;2023-07-09T14:46:59;10.02;;;4.70;;
75930;SDS011;64609;47.052;15.462;2023-07-09T14:49:25;7.85;;;4.97;;
75930;SDS011;64609;47.052;15.462;2023-07-09T14:51:52;11.02;;;4.78;;
75930;SDS011;64609;47.052;15.462;2023-07-09T14:54:19;8.75;;;5.00;;
75930;SDS011;64609;47.052;15.462;2023-07-09T14:56:47;7.95;;;4.85;;
75930;SDS011;64609;47.052;15.462;2023-07-09T14:59:14;6.13;;;4.50;;
75930;SDS011;64609;47.052;15.462;2023-07-09T15:01:40;7.47;;;5.07;;
75930;SDS011;64609;47.052;15.462;2023-07-09T15:04:10;7.25;;;4.88;;
75930;SDS011;64609;47.052;15.462;2023-07-09T15:06:55;6.90;;;4.77;;
75930;SDS011;64609;47.052;15.462;2023-07-09T15:09:22;9.40;;;4.70;;
75930;SDS011;64609;47.052;15.462;2023-07-09T15:11:52;8.48;;;4.43;;